Weather at Appleton International Airport

Public forecast

Using degrees Fahrenheit for public forecast. Weather courtesy of forecast.io.

Current aviation weather report (METAR) for Appleton International Airport

Retrieved 2020/09/29 22:45 UTC (29 minutes ago):

KATW 292245Z 23004KT 10SM SCT023 BKN032 11/07 A2971

Aviation forecast (TAF) for Appleton International Airport

Retrieved 2020/09/29 18:39 UTC (5 hours ago):

TAF KATW 291736Z 2918/3018 26010G17KT P6SM VCSH OVC020 FM292200 25008KT P6SM -SHRA BKN020 BKN035 FM300100 25006KT P6SM BKN080 FM301500 28013G21KT P6SM -SHRA BKN035 BKN070